sensor_id;sensor_type;location;lat;lon;timestamp;P1;durP1;ratioP1;P2;durP2;ratioP2
4363;SDS011;15337;48.202;12.770;2022-08-06T00:02:12;5.53;;;5.22;;
4363;SDS011;15337;48.202;12.770;2022-08-06T00:04:39;5.03;;;4.57;;
4363;SDS011;15337;48.202;12.770;2022-08-06T00:07:06;5.75;;;5.25;;
4363;SDS011;15337;48.202;12.770;2022-08-06T00:09:33;5.60;;;4.68;;
4363;SDS011;15337;48.202;12.770;2022-08-06T00:12:00;5.60;;;5.30;;
4363;SDS011;15337;48.202;12.770;2022-08-06T00:14:27;5.25;;;4.97;;
4363;SDS011;15337;48.202;12.770;2022-08-06T00:16:55;5.18;;;4.88;;
4363;SDS011;15337;48.202;12.770;2022-08-06T00:19:24;5.32;;;5.03;;
4363;SDS011;15337;48.202;12.770;2022-08-06T00:21:51;5.60;;;5.10;;
4363;SDS011;15337;48.202;12.770;2022-08-06T00:24:19;5.25;;;4.95;;
4363;SDS011;15337;48.202;12.770;2022-08-06T00:26:46;4.57;;;4.28;;
4363;SDS011;15337;48.202;12.770;2022-08-06T00:29:13;4.57;;;4.28;;
4363;SDS011;15337;48.202;12.770;2022-08-06T00:31:40;5.43;;;5.03;;
4363;SDS011;15337;48.202;12.770;2022-08-06T00:34:07;4.47;;;4.28;;
4363;SDS011;15337;48.202;12.770;2022-08-06T00:36:35;5.47;;;4.30;;
4363;SDS011;15337;48.202;12.770;2022-08-06T00:39:03;3.90;;;3.60;;
4363;SDS011;15337;48.202;12.770;2022-08-06T00:41:31;4.78;;;4.57;;
4363;SDS011;15337;48.202;12.770;2022-08-06T00:43:58;5.50;;;4.22;;
4363;SDS011;15337;48.202;12.770;2022-08-06T00:46:26;4.65;;;4.35;;
4363;SDS011;15337;48.202;12.770;2022-08-06T00:48:53;7.20;;;4.40;;
4363;SDS011;15337;48.202;12.770;2022-08-06T00:51:20;3.92;;;3.72;;
4363;SDS011;15337;48.202;12.770;2022-08-06T00:53:49;4.72;;;4.43;;
4363;SDS011;15337;48.202;12.770;2022-08-06T00:56:16;4.15;;;3.95;;
4363;SDS011;15337;48.202;12.770;2022-08-06T00:58:43;4.85;;;4.53;;
4363;SDS011;15337;48.202;12.770;2022-08-06T01:01:10;4.13;;;3.83;;
4363;SDS011;15337;48.202;12.770;2022-08-06T01:03:37;10.38;;;4.22;;
4363;SDS011;15337;48.202;12.770;2022-08-06T01:06:04;5.03;;;4.72;;
4363;SDS011;15337;48.202;12.770;2022-08-06T01:08:31;4.88;;;4.47;;
4363;SDS011;15337;48.202;12.770;2022-08-06T01:11:00;4.45;;;4.15;;
4363;SDS011;15337;48.202;12.770;2022-08-06T01:13:26;5.22;;;4.82;;
4363;SDS011;15337;48.202;12.770;2022-08-06T01:15:56;4.47;;;4.18;;
4363;SDS011;15337;48.202;12.770;2022-08-06T01:18:31;5.18;;;4.32;;
4363;SDS011;15337;48.202;12.770;2022-08-06T01:21:09;5.03;;;4.80;;
4363;SDS011;15337;48.202;12.770;2022-08-06T01:23:47;4.53;;;4.30;;
4363;SDS011;15337;48.202;12.770;2022-08-06T01:26:32;5.07;;;4.72;;
4363;SDS011;15337;48.202;12.770;2022-08-06T01:29:08;4.15;;;3.95;;
4363;SDS011;15337;48.202;12.770;2022-08-06T01:31:38;4.65;;;4.25;;
4363;SDS011;15337;48.202;12.770;2022-08-06T01:34:14;4.18;;;3.97;;
4363;SDS011;15337;48.202;12.770;2022-08-06T01:36:48;4.97;;;4.63;;
4363;SDS011;15337;48.202;12.770;2022-08-06T01:39:18;4.20;;;4.00;;
4363;SDS011;15337;48.202;12.770;2022-08-06T01:41:48;4.75;;;4.45;;
4363;SDS011;15337;48.202;12.770;2022-08-06T01:44:19;4.72;;;4.53;;
4363;SDS011;15337;48.202;12.770;2022-08-06T01:46:48;4.53;;;4.07;;
4363;SDS011;15337;48.202;12.770;2022-08-06T01:49:18;5.53;;;5.22;;
4363;SDS011;15337;48.202;12.770;2022-08-06T01:51:49;4.90;;;4.70;;
4363;SDS011;15337;48.202;12.770;2022-08-06T01:54:19;5.20;;;4.80;;
4363;SDS011;15337;48.202;12.770;2022-08-06T01:56:48;6.45;;;4.45;;
4363;SDS011;15337;48.202;12.770;2022-08-06T01:59:20;5.68;;;5.28;;
4363;SDS011;15337;48.202;12.770;2022-08-06T02:01:51;4.82;;;4.57;;
4363;SDS011;15337;48.202;12.770;2022-08-06T02:04:22;6.28;;;5.75;;
4363;SDS011;15337;48.202;12.770;2022-08-06T02:06:51;5.07;;;4.78;;
4363;SDS011;15337;48.202;12.770;2022-08-06T02:09:20;4.68;;;4.47;;
4363;SDS011;15337;48.202;12.770;2022-08-06T02:11:49;5.50;;;5.20;;
4363;SDS011;15337;48.202;12.770;2022-08-06T02:14:21;5.25;;;4.95;;
4363;SDS011;15337;48.202;12.770;2022-08-06T02:16:50;6.13;;;5.82;;
4363;SDS011;15337;48.202;12.770;2022-08-06T02:19:21;6.10;;;5.25;;
4363;SDS011;15337;48.202;12.770;2022-08-06T02:21:52;6.25;;;5.85;;
4363;SDS011;15337;48.202;12.770;2022-08-06T02:24:21;10.77;;;5.95;;
4363;SDS011;15337;48.202;12.770;2022-08-06T02:26:51;5.82;;;5.43;;
4363;SDS011;15337;48.202;12.770;2022-08-06T02:29:19;5.93;;;5.53;;
4363;SDS011;15337;48.202;12.770;2022-08-06T02:31:49;6.22;;;5.47;;
4363;SDS011;15337;48.202;12.770;2022-08-06T02:34:17;5.72;;;5.43;;
4363;SDS011;15337;48.202;12.770;2022-08-06T02:36:45;5.85;;;5.20;;
4363;SDS011;15337;48.202;12.770;2022-08-06T02:39:32;7.30;;;6.90;;
4363;SDS011;15337;48.202;12.770;2022-08-06T02:42:06;6.47;;;5.90;;
4363;SDS011;15337;48.202;12.770;2022-08-06T02:44:45;6.70;;;6.10;;
4363;SDS011;15337;48.202;12.770;2022-08-06T02:47:20;6.20;;;5.88;;
4363;SDS011;15337;48.202;12.770;2022-08-06T02:49:52;6.53;;;5.88;;
4363;SDS011;15337;48.202;12.770;2022-08-06T02:52:26;6.50;;;6.20;;
4363;SDS011;15337;48.202;12.770;2022-08-06T02:55:02;6.95;;;6.45;;
4363;SDS011;15337;48.202;12.770;2022-08-06T02:57:36;5.53;;;5.22;;
4363;SDS011;15337;48.202;12.770;2022-08-06T03:00:08;5.82;;;5.53;;
4363;SDS011;15337;48.202;12.770;2022-08-06T03:02:36;6.28;;;5.88;;
4363;SDS011;15337;48.202;12.770;2022-08-06T03:05:07;6.20;;;5.70;;
4363;SDS011;15337;48.202;12.770;2022-08-06T03:07:38;6.78;;;6.20;;
4363;SDS011;15337;48.202;12.770;2022-08-06T03:10:08;6.07;;;5.78;;
4363;SDS011;15337;48.202;12.770;2022-08-06T03:12:35;5.43;;;5.13;;
4363;SDS011;15337;48.202;12.770;2022-08-06T03:15:04;6.80;;;5.22;;
4363;SDS011;15337;48.202;12.770;2022-08-06T03:17:35;6.28;;;5.88;;
4363;SDS011;15337;48.202;12.770;2022-08-06T03:20:04;5.95;;;5.65;;
4363;SDS011;15337;48.202;12.770;2022-08-06T03:22:33;5.90;;;5.40;;
4363;SDS011;15337;48.202;12.770;2022-08-06T03:25:02;7.07;;;6.38;;
4363;SDS011;15337;48.202;12.770;2022-08-06T03:27:31;6.88;;;6.20;;
4363;SDS011;15337;48.202;12.770;2022-08-06T03:29:58;6.07;;;5.68;;
4363;SDS011;15337;48.202;12.770;2022-08-06T03:32:28;5.45;;;5.15;;
4363;SDS011;15337;48.202;12.770;2022-08-06T03:34:55;5.60;;;5.22;;
4363;SDS011;15337;48.202;12.770;2022-08-06T03:37:23;5.75;;;5.50;;
4363;SDS011;15337;48.202;12.770;2022-08-06T03:39:51;5.45;;;5.13;;
4363;SDS011;15337;48.202;12.770;2022-08-06T03:42:19;5.63;;;5.32;;
4363;SDS011;15337;48.202;12.770;2022-08-06T03:44:46;6.97;;;4.57;;
4363;SDS011;15337;48.202;12.770;2022-08-06T03:47:16;7.75;;;5.38;;
4363;SDS011;15337;48.202;12.770;2022-08-06T03:49:51;5.20;;;4.80;;
4363;SDS011;15337;48.202;12.770;2022-08-06T03:52:23;5.40;;;5.03;;
4363;SDS011;15337;48.202;12.770;2022-08-06T03:54:53;4.88;;;4.68;;
4363;SDS011;15337;48.202;12.770;2022-08-06T03:57:24;5.00;;;4.70;;
4363;SDS011;15337;48.202;12.770;2022-08-06T03:59:56;5.72;;;5.30;;
4363;SDS011;15337;48.202;12.770;2022-08-06T04:02:30;5.05;;;4.75;;
4363;SDS011;15337;48.202;12.770;2022-08-06T04:05:01;4.63;;;4.32;;
4363;SDS011;15337;48.202;12.770;2022-08-06T04:07:29;4.50;;;4.30;;
4363;SDS011;15337;48.202;12.770;2022-08-06T04:09:56;5.25;;;4.82;;
4363;SDS011;15337;48.202;12.770;2022-08-06T04:12:26;6.32;;;4.13;;
4363;SDS011;15337;48.202;12.770;2022-08-06T04:14:54;4.50;;;4.20;;
4363;SDS011;15337;48.202;12.770;2022-08-06T04:17:22;5.28;;;4.97;;
4363;SDS011;15337;48.202;12.770;2022-08-06T04:19:50;5.82;;;4.43;;
4363;SDS011;15337;48.202;12.770;2022-08-06T04:22:20;4.18;;;3.97;;
4363;SDS011;15337;48.202;12.770;2022-08-06T04:24:47;4.93;;;4.63;;
4363;SDS011;15337;48.202;12.770;2022-08-06T04:27:14;10.40;;;4.80;;
4363;SDS011;15337;48.202;12.770;2022-08-06T04:29:42;6.20;;;4.57;;
4363;SDS011;15337;48.202;12.770;2022-08-06T04:32:11;4.90;;;4.50;;
4363;SDS011;15337;48.202;12.770;2022-08-06T04:34:41;5.05;;;4.65;;
4363;SDS011;15337;48.202;12.770;2022-08-06T04:37:09;5.88;;;5.38;;
4363;SDS011;15337;48.202;12.770;2022-08-06T04:39:39;4.53;;;4.32;;
4363;SDS011;15337;48.202;12.770;2022-08-06T04:42:07;5.80;;;5.45;;
4363;SDS011;15337;48.202;12.770;2022-08-06T04:44:34;4.80;;;4.40;;
4363;SDS011;15337;48.202;12.770;2022-08-06T04:47:02;6.57;;;5.88;;
4363;SDS011;15337;48.202;12.770;2022-08-06T04:49:29;6.22;;;5.18;;
4363;SDS011;15337;48.202;12.770;2022-08-06T04:51:56;5.63;;;5.32;;
4363;SDS011;15337;48.202;12.770;2022-08-06T04:54:23;6.15;;;5.53;;
4363;SDS011;15337;48.202;12.770;2022-08-06T04:56:52;5.55;;;5.25;;
4363;SDS011;15337;48.202;12.770;2022-08-06T04:59:19;7.10;;;6.15;;
4363;SDS011;15337;48.202;12.770;2022-08-06T05:01:46;8.07;;;7.43;;
4363;SDS011;15337;48.202;12.770;2022-08-06T05:04:13;8.68;;;7.30;;
4363;SDS011;15337;48.202;12.770;2022-08-06T05:06:42;7.20;;;6.72;;
4363;SDS011;15337;48.202;12.770;2022-08-06T05:09:12;8.70;;;8.05;;
4363;SDS011;15337;48.202;12.770;2022-08-06T05:11:43;11.20;;;9.23;;
4363;SDS011;15337;48.202;12.770;2022-08-06T05:14:20;9.40;;;8.65;;
4363;SDS011;15337;48.202;12.770;2022-08-06T05:16:50;7.72;;;7.03;;
4363;SDS011;15337;48.202;12.770;2022-08-06T05:19:21;8.77;;;7.88;;
4363;SDS011;15337;48.202;12.770;2022-08-06T05:21:52;10.65;;;7.72;;
4363;SDS011;15337;48.202;12.770;2022-08-06T05:24:21;9.35;;;8.40;;
4363;SDS011;15337;48.202;12.770;2022-08-06T05:26:48;9.43;;;8.68;;
4363;SDS011;15337;48.202;12.770;2022-08-06T05:29:19;14.20;;;9.20;;
4363;SDS011;15337;48.202;12.770;2022-08-06T05:31:47;9.95;;;8.10;;
4363;SDS011;15337;48.202;12.770;2022-08-06T05:34:14;10.40;;;9.18;;
4363;SDS011;15337;48.202;12.770;2022-08-06T05:36:41;9.77;;;8.90;;
4363;SDS011;15337;48.202;12.770;2022-08-06T05:39:08;12.23;;;11.05;;
4363;SDS011;15337;48.202;12.770;2022-08-06T05:41:35;11.18;;;10.15;;
4363;SDS011;15337;48.202;12.770;2022-08-06T05:44:02;10.75;;;9.88;;
4363;SDS011;15337;48.202;12.770;2022-08-06T05:46:31;10.77;;;9.50;;
4363;SDS011;15337;48.202;12.770;2022-08-06T05:49:02;9.30;;;8.35;;
4363;SDS011;15337;48.202;12.770;2022-08-06T05:51:33;25.10;;;12.18;;
4363;SDS011;15337;48.202;12.770;2022-08-06T05:54:05;10.45;;;9.75;;
4363;SDS011;15337;48.202;12.770;2022-08-06T05:56:42;11.07;;;10.00;;
4363;SDS011;15337;48.202;12.770;2022-08-06T05:59:18;14.02;;;12.63;;
4363;SDS011;15337;48.202;12.770;2022-08-06T06:01:49;11.95;;;10.68;;
4363;SDS011;15337;48.202;12.770;2022-08-06T06:04:16;13.63;;;10.90;;
4363;SDS011;15337;48.202;12.770;2022-08-06T06:06:46;12.77;;;11.68;;
4363;SDS011;15337;48.202;12.770;2022-08-06T06:09:13;13.27;;;12.02;;
4363;SDS011;15337;48.202;12.770;2022-08-06T06:11:41;13.98;;;10.90;;
4363;SDS011;15337;48.202;12.770;2022-08-06T06:14:18;14.18;;;11.25;;
4363;SDS011;15337;48.202;12.770;2022-08-06T06:16:58;12.35;;;11.18;;
4363;SDS011;15337;48.202;12.770;2022-08-06T06:19:53;15.60;;;12.07;;
4363;SDS011;15337;48.202;12.770;2022-08-06T06:22:27;15.15;;;12.27;;
4363;SDS011;15337;48.202;12.770;2022-08-06T06:25:02;12.48;;;11.23;;
4363;SDS011;15337;48.202;12.770;2022-08-06T06:27:33;13.07;;;11.82;;
4363;SDS011;15337;48.202;12.770;2022-08-06T06:30:10;11.38;;;10.25;;
4363;SDS011;15337;48.202;12.770;2022-08-06T06:32:45;12.25;;;11.07;;
4363;SDS011;15337;48.202;12.770;2022-08-06T06:35:18;11.77;;;10.38;;
4363;SDS011;15337;48.202;12.770;2022-08-06T06:38:01;10.55;;;9.77;;
4363;SDS011;15337;48.202;12.770;2022-08-06T06:40:42;10.40;;;9.70;;
4363;SDS011;15337;48.202;12.770;2022-08-06T06:43:16;9.55;;;8.93;;
4363;SDS011;15337;48.202;12.770;2022-08-06T06:45:50;9.10;;;8.52;;
4363;SDS011;15337;48.202;12.770;2022-08-06T06:48:23;12.80;;;7.93;;
4363;SDS011;15337;48.202;12.770;2022-08-06T06:51:08;10.63;;;9.20;;
4363;SDS011;15337;48.202;12.770;2022-08-06T06:53:38;7.68;;;7.18;;
4363;SDS011;15337;48.202;12.770;2022-08-06T06:56:08;14.48;;;8.15;;
4363;SDS011;15337;48.202;12.770;2022-08-06T06:58:37;7.82;;;7.43;;
4363;SDS011;15337;48.202;12.770;2022-08-06T07:01:10;8.30;;;7.50;;
4363;SDS011;15337;48.202;12.770;2022-08-06T07:03:40;7.28;;;6.88;;
4363;SDS011;15337;48.202;12.770;2022-08-06T07:06:10;8.48;;;6.75;;
4363;SDS011;15337;48.202;12.770;2022-08-06T07:08:38;7.28;;;6.78;;
4363;SDS011;15337;48.202;12.770;2022-08-06T07:11:10;10.38;;;7.43;;
4363;SDS011;15337;48.202;12.770;2022-08-06T07:13:39;7.97;;;7.38;;
4363;SDS011;15337;48.202;12.770;2022-08-06T07:16:10;8.50;;;7.25;;
4363;SDS011;15337;48.202;12.770;2022-08-06T07:18:40;6.57;;;6.18;;
4363;SDS011;15337;48.202;12.770;2022-08-06T07:21:08;7.75;;;6.93;;
4363;SDS011;15337;48.202;12.770;2022-08-06T07:23:35;7.75;;;7.25;;
4363;SDS011;15337;48.202;12.770;2022-08-06T07:26:03;7.63;;;7.00;;
4363;SDS011;15337;48.202;12.770;2022-08-06T07:28:32;8.10;;;7.50;;
4363;SDS011;15337;48.202;12.770;2022-08-06T07:31:00;7.45;;;6.93;;
4363;SDS011;15337;48.202;12.770;2022-08-06T07:33:30;7.18;;;6.78;;
4363;SDS011;15337;48.202;12.770;2022-08-06T07:35:59;9.52;;;7.18;;
4363;SDS011;15337;48.202;12.770;2022-08-06T07:38:27;10.80;;;8.40;;
4363;SDS011;15337;48.202;12.770;2022-08-06T07:40:58;7.15;;;6.53;;
4363;SDS011;15337;48.202;12.770;2022-08-06T07:43:30;7.78;;;7.38;;
4363;SDS011;15337;48.202;12.770;2022-08-06T07:46:01;6.25;;;5.80;;
4363;SDS011;15337;48.202;12.770;2022-08-06T07:48:31;9.40;;;7.00;;
4363;SDS011;15337;48.202;12.770;2022-08-06T07:51:02;8.98;;;6.25;;
4363;SDS011;15337;48.202;12.770;2022-08-06T07:53:31;8.43;;;7.53;;
4363;SDS011;15337;48.202;12.770;2022-08-06T07:56:00;8.63;;;7.68;;
4363;SDS011;15337;48.202;12.770;2022-08-06T07:58:27;7.68;;;7.15;;
4363;SDS011;15337;48.202;12.770;2022-08-06T08:00:54;8.48;;;7.63;;
4363;SDS011;15337;48.202;12.770;2022-08-06T08:03:21;8.20;;;7.50;;
4363;SDS011;15337;48.202;12.770;2022-08-06T08:06:08;7.43;;;7.03;;
4363;SDS011;15337;48.202;12.770;2022-08-06T08:08:46;7.60;;;6.95;;
4363;SDS011;15337;48.202;12.770;2022-08-06T08:11:15;8.85;;;8.15;;
4363;SDS011;15337;48.202;12.770;2022-08-06T08:13:43;8.07;;;7.57;;
4363;SDS011;15337;48.202;12.770;2022-08-06T08:16:12;8.43;;;8.00;;
4363;SDS011;15337;48.202;12.770;2022-08-06T08:18:40;8.77;;;8.15;;
4363;SDS011;15337;48.202;12.770;2022-08-06T08:21:09;7.90;;;7.50;;
4363;SDS011;15337;48.202;12.770;2022-08-06T08:23:37;7.75;;;7.13;;
4363;SDS011;15337;48.202;12.770;2022-08-06T08:26:06;8.90;;;7.85;;
4363;SDS011;15337;48.202;12.770;2022-08-06T08:28:35;7.15;;;6.80;;
4363;SDS011;15337;48.202;12.770;2022-08-06T08:31:02;8.23;;;7.65;;
4363;SDS011;15337;48.202;12.770;2022-08-06T08:33:31;8.32;;;7.63;;
4363;SDS011;15337;48.202;12.770;2022-08-06T08:35:59;9.13;;;8.23;;
4363;SDS011;15337;48.202;12.770;2022-08-06T08:38:28;9.18;;;8.38;;
4363;SDS011;15337;48.202;12.770;2022-08-06T08:40:56;7.90;;;7.13;;
4363;SDS011;15337;48.202;12.770;2022-08-06T08:43:29;9.20;;;8.52;;
4363;SDS011;15337;48.202;12.770;2022-08-06T08:45:59;7.25;;;6.82;;
4363;SDS011;15337;48.202;12.770;2022-08-06T08:48:28;8.35;;;7.85;;
4363;SDS011;15337;48.202;12.770;2022-08-06T08:50:58;7.45;;;7.13;;
4363;SDS011;15337;48.202;12.770;2022-08-06T08:53:31;9.27;;;8.13;;
4363;SDS011;15337;48.202;12.770;2022-08-06T08:56:02;8.77;;;8.27;;
4363;SDS011;15337;48.202;12.770;2022-08-06T08:58:30;7.50;;;7.03;;
4363;SDS011;15337;48.202;12.770;2022-08-06T09:01:01;7.53;;;6.82;;
4363;SDS011;15337;48.202;12.770;2022-08-06T09:03:32;6.80;;;6.40;;
4363;SDS011;15337;48.202;12.770;2022-08-06T09:06:00;6.75;;;6.45;;
4363;SDS011;15337;48.202;12.770;2022-08-06T09:08:29;9.00;;;8.50;;
4363;SDS011;15337;48.202;12.770;2022-08-06T09:10:57;6.68;;;6.30;;
4363;SDS011;15337;48.202;12.770;2022-08-06T09:13:25;8.38;;;7.68;;
4363;SDS011;15337;48.202;12.770;2022-08-06T09:15:52;7.68;;;7.03;;
4363;SDS011;15337;48.202;12.770;2022-08-06T09:18:20;6.70;;;6.18;;
4363;SDS011;15337;48.202;12.770;2022-08-06T09:20:47;7.43;;;6.95;;
4363;SDS011;15337;48.202;12.770;2022-08-06T09:23:14;6.25;;;5.75;;
4363;SDS011;15337;48.202;12.770;2022-08-06T09:25:44;6.78;;;6.28;;
4363;SDS011;15337;48.202;12.770;2022-08-06T09:28:25;6.30;;;5.80;;
4363;SDS011;15337;48.202;12.770;2022-08-06T09:30:59;8.60;;;7.78;;
4363;SDS011;15337;48.202;12.770;2022-08-06T09:33:29;7.32;;;6.65;;
4363;SDS011;15337;48.202;12.770;2022-08-06T09:35:58;6.60;;;6.15;;
4363;SDS011;15337;48.202;12.770;2022-08-06T09:38:27;7.43;;;6.75;;
4363;SDS011;15337;48.202;12.770;2022-08-06T09:41:02;6.60;;;6.00;;
4363;SDS011;15337;48.202;12.770;2022-08-06T09:43:34;6.38;;;6.07;;
4363;SDS011;15337;48.202;12.770;2022-08-06T09:46:01;5.85;;;5.35;;
4363;SDS011;15337;48.202;12.770;2022-08-06T09:48:28;4.63;;;4.22;;
4363;SDS011;15337;48.202;12.770;2022-08-06T09:50:55;4.72;;;4.53;;
4363;SDS011;15337;48.202;12.770;2022-08-06T09:53:23;4.13;;;3.92;;
4363;SDS011;15337;48.202;12.770;2022-08-06T09:55:51;4.45;;;4.07;;
4363;SDS011;15337;48.202;12.770;2022-08-06T09:58:27;4.18;;;3.97;;
4363;SDS011;15337;48.202;12.770;2022-08-06T10:00:56;3.63;;;3.33;;
4363;SDS011;15337;48.202;12.770;2022-08-06T10:03:23;3.63;;;3.42;;
4363;SDS011;15337;48.202;12.770;2022-08-06T10:06:03;2.75;;;2.55;;
4363;SDS011;15337;48.202;12.770;2022-08-06T10:08:31;2.80;;;2.60;;
4363;SDS011;15337;48.202;12.770;2022-08-06T10:10:58;2.50;;;2.38;;
4363;SDS011;15337;48.202;12.770;2022-08-06T10:13:29;2.78;;;2.58;;
4363;SDS011;15337;48.202;12.770;2022-08-06T10:15:59;2.70;;;2.50;;
4363;SDS011;15337;48.202;12.770;2022-08-06T10:18:37;3.28;;;3.08;;
4363;SDS011;15337;48.202;12.770;2022-08-06T10:21:06;4.10;;;3.85;;
4363;SDS011;15337;48.202;12.770;2022-08-06T10:23:34;4.00;;;3.70;;
4363;SDS011;15337;48.202;12.770;2022-08-06T10:26:06;4.40;;;4.20;;
4363;SDS011;15337;48.202;12.770;2022-08-06T10:28:38;6.13;;;5.82;;
4363;SDS011;15337;48.202;12.770;2022-08-06T10:31:06;4.45;;;4.25;;
4363;SDS011;15337;48.202;12.770;2022-08-06T10:33:36;6.22;;;5.82;;
4363;SDS011;15337;48.202;12.770;2022-08-06T10:36:08;4.90;;;4.70;;
4363;SDS011;15337;48.202;12.770;2022-08-06T10:38:37;7.55;;;6.38;;
4363;SDS011;15337;48.202;12.770;2022-08-06T10:41:06;6.32;;;6.03;;
4363;SDS011;15337;48.202;12.770;2022-08-06T10:43:37;6.57;;;6.18;;
4363;SDS011;15337;48.202;12.770;2022-08-06T10:46:05;6.65;;;6.32;;
4363;SDS011;15337;48.202;12.770;2022-08-06T10:48:34;6.63;;;6.32;;
4363;SDS011;15337;48.202;12.770;2022-08-06T10:51:01;6.57;;;6.25;;
4363;SDS011;15337;48.202;12.770;2022-08-06T10:53:30;7.43;;;7.13;;
4363;SDS011;15337;48.202;12.770;2022-08-06T10:55:59;7.53;;;6.88;;
4363;SDS011;15337;48.202;12.770;2022-08-06T10:58:28;7.88;;;7.30;;
4363;SDS011;15337;48.202;12.770;2022-08-06T11:00:59;6.93;;;6.45;;
4363;SDS011;15337;48.202;12.770;2022-08-06T11:03:30;7.15;;;6.75;;
4363;SDS011;15337;48.202;12.770;2022-08-06T11:06:09;7.20;;;6.88;;
4363;SDS011;15337;48.202;12.770;2022-08-06T11:08:52;6.82;;;6.53;;
4363;SDS011;15337;48.202;12.770;2022-08-06T11:11:43;6.72;;;6.32;;
4363;SDS011;15337;48.202;12.770;2022-08-06T11:14:24;7.35;;;6.65;;
4363;SDS011;15337;48.202;12.770;2022-08-06T11:16:57;7.07;;;6.78;;
4363;SDS011;15337;48.202;12.770;2022-08-06T11:19:38;7.53;;;7.22;;
4363;SDS011;15337;48.202;12.770;2022-08-06T11:22:08;6.80;;;6.50;;
4363;SDS011;15337;48.202;12.770;2022-08-06T11:24:58;8.15;;;7.65;;
4363;SDS011;15337;48.202;12.770;2022-08-06T11:30:16;7.82;;;7.53;;
4363;SDS011;15337;48.202;12.770;2022-08-06T11:32:46;8.10;;;7.80;;
4363;SDS011;15337;48.202;12.770;2022-08-06T11:38:10;7.38;;;7.00;;
4363;SDS011;15337;48.202;12.770;2022-08-06T11:40:54;8.68;;;8.18;;
4363;SDS011;15337;48.202;12.770;2022-08-06T11:43:42;8.45;;;8.05;;
4363;SDS011;15337;48.202;12.770;2022-08-06T11:46:19;9.88;;;9.18;;
4363;SDS011;15337;48.202;12.770;2022-08-06T11:51:49;10.27;;;8.07;;
4363;SDS011;15337;48.202;12.770;2022-08-06T11:54:18;8.43;;;7.78;;
4363;SDS011;15337;48.202;12.770;2022-08-06T11:59:45;8.07;;;7.63;;
4363;SDS011;15337;48.202;12.770;2022-08-06T12:05:37;8.38;;;7.97;;
4363;SDS011;15337;48.202;12.770;2022-08-06T12:08:19;8.05;;;7.65;;
4363;SDS011;15337;48.202;12.770;2022-08-06T12:13:50;7.80;;;7.45;;
4363;SDS011;15337;48.202;12.770;2022-08-06T12:19:12;7.63;;;7.32;;
4363;SDS011;15337;48.202;12.770;2022-08-06T12:21:42;7.60;;;7.30;;
4363;SDS011;15337;48.202;12.770;2022-08-06T12:24:10;7.50;;;7.10;;
4363;SDS011;15337;48.202;12.770;2022-08-06T12:26:37;10.52;;;9.68;;
4363;SDS011;15337;48.202;12.770;2022-08-06T12:29:05;9.63;;;9.23;;
4363;SDS011;15337;48.202;12.770;2022-08-06T12:31:34;9.98;;;9.43;;
4363;SDS011;15337;48.202;12.770;2022-08-06T12:34:03;11.43;;;10.55;;
4363;SDS011;15337;48.202;12.770;2022-08-06T12:36:32;10.98;;;10.27;;
4363;SDS011;15337;48.202;12.770;2022-08-06T12:39:03;11.60;;;10.90;;
4363;SDS011;15337;48.202;12.770;2022-08-06T12:41:39;12.02;;;11.15;;
4363;SDS011;15337;48.202;12.770;2022-08-06T12:44:08;8.85;;;8.45;;
4363;SDS011;15337;48.202;12.770;2022-08-06T12:46:35;8.13;;;7.72;;
4363;SDS011;15337;48.202;12.770;2022-08-06T12:49:02;9.55;;;9.15;;
4363;SDS011;15337;48.202;12.770;2022-08-06T12:51:29;9.57;;;8.93;;
4363;SDS011;15337;48.202;12.770;2022-08-06T12:53:58;9.98;;;9.38;;
4363;SDS011;15337;48.202;12.770;2022-08-06T12:56:31;7.85;;;7.55;;
4363;SDS011;15337;48.202;12.770;2022-08-06T12:59:01;11.38;;;10.77;;
4363;SDS011;15337;48.202;12.770;2022-08-06T13:01:30;13.05;;;12.25;;
4363;SDS011;15337;48.202;12.770;2022-08-06T13:04:00;10.98;;;10.48;;
4363;SDS011;15337;48.202;12.770;2022-08-06T13:06:29;11.63;;;10.88;;
4363;SDS011;15337;48.202;12.770;2022-08-06T13:09:00;11.50;;;10.80;;
4363;SDS011;15337;48.202;12.770;2022-08-06T13:11:32;10.77;;;9.88;;
4363;SDS011;15337;48.202;12.770;2022-08-06T13:14:07;10.20;;;9.60;;
4363;SDS011;15337;48.202;12.770;2022-08-06T13:16:38;11.18;;;10.15;;
4363;SDS011;15337;48.202;12.770;2022-08-06T13:19:07;10.48;;;9.88;;
4363;SDS011;15337;48.202;12.770;2022-08-06T13:21:35;10.70;;;9.57;;
4363;SDS011;15337;48.202;12.770;2022-08-06T13:24:03;9.32;;;8.73;;
4363;SDS011;15337;48.202;12.770;2022-08-06T13:26:32;9.88;;;9.38;;
4363;SDS011;15337;48.202;12.770;2022-08-06T13:29:04;8.98;;;8.57;;
4363;SDS011;15337;48.202;12.770;2022-08-06T13:31:33;9.43;;;9.02;;
4363;SDS011;15337;48.202;12.770;2022-08-06T13:34:00;11.75;;;10.65;;
4363;SDS011;15337;48.202;12.770;2022-08-06T13:36:28;8.80;;;8.30;;
4363;SDS011;15337;48.202;12.770;2022-08-06T13:38:57;7.38;;;7.07;;
4363;SDS011;15337;48.202;12.770;2022-08-06T13:41:28;7.93;;;7.53;;
4363;SDS011;15337;48.202;12.770;2022-08-06T13:43:58;8.30;;;7.95;;
4363;SDS011;15337;48.202;12.770;2022-08-06T13:46:26;9.63;;;9.02;;
4363;SDS011;15337;48.202;12.770;2022-08-06T13:48:54;8.38;;;7.97;;
4363;SDS011;15337;48.202;12.770;2022-08-06T13:51:22;8.48;;;8.07;;
4363;SDS011;15337;48.202;12.770;2022-08-06T13:53:50;8.43;;;7.95;;
4363;SDS011;15337;48.202;12.770;2022-08-06T13:56:17;8.20;;;7.80;;
4363;SDS011;15337;48.202;12.770;2022-08-06T13:58:45;9.07;;;8.38;;
4363;SDS011;15337;48.202;12.770;2022-08-06T14:01:14;8.00;;;7.60;;
4363;SDS011;15337;48.202;12.770;2022-08-06T14:03:41;8.93;;;8.52;;
4363;SDS011;15337;48.202;12.770;2022-08-06T14:06:08;7.80;;;7.40;;
4363;SDS011;15337;48.202;12.770;2022-08-06T14:08:34;9.80;;;9.02;;
4363;SDS011;15337;48.202;12.770;2022-08-06T14:11:02;9.50;;;8.98;;
4363;SDS011;15337;48.202;12.770;2022-08-06T14:13:29;10.07;;;9.57;;
4363;SDS011;15337;48.202;12.770;2022-08-06T14:15:57;9.77;;;9.18;;
4363;SDS011;15337;48.202;12.770;2022-08-06T14:18:27;10.43;;;9.80;;
4363;SDS011;15337;48.202;12.770;2022-08-06T14:20:55;10.43;;;9.48;;
4363;SDS011;15337;48.202;12.770;2022-08-06T14:23:22;9.60;;;9.10;;
4363;SDS011;15337;48.202;12.770;2022-08-06T14:25:49;9.48;;;8.98;;
4363;SDS011;15337;48.202;12.770;2022-08-06T14:28:16;11.30;;;10.50;;
4363;SDS011;15337;48.202;12.770;2022-08-06T14:30:45;12.15;;;11.45;;
4363;SDS011;15337;48.202;12.770;2022-08-06T14:33:12;11.48;;;10.68;;
4363;SDS011;15337;48.202;12.770;2022-08-06T14:35:40;12.20;;;11.13;;
4363;SDS011;15337;48.202;12.770;2022-08-06T14:38:07;12.40;;;11.35;;
4363;SDS011;15337;48.202;12.770;2022-08-06T14:40:36;12.00;;;11.07;;
4363;SDS011;15337;48.202;12.770;2022-08-06T14:43:20;11.27;;;10.68;;
4363;SDS011;15337;48.202;12.770;2022-08-06T14:46:04;10.30;;;9.75;;
4363;SDS011;15337;48.202;12.770;2022-08-06T14:48:31;13.15;;;12.25;;
4363;SDS011;15337;48.202;12.770;2022-08-06T14:51:00;11.10;;;10.45;;
4363;SDS011;15337;48.202;12.770;2022-08-06T14:53:27;10.82;;;10.23;;
4363;SDS011;15337;48.202;12.770;2022-08-06T14:55:54;11.07;;;10.27;;
4363;SDS011;15337;48.202;12.770;2022-08-06T14:58:20;13.50;;;12.65;;
4363;SDS011;15337;48.202;12.770;2022-08-06T15:00:47;12.65;;;11.85;;
4363;SDS011;15337;48.202;12.770;2022-08-06T15:03:16;13.27;;;12.27;;
4363;SDS011;15337;48.202;12.770;2022-08-06T15:05:44;13.57;;;12.57;;
4363;SDS011;15337;48.202;12.770;2022-08-06T15:08:13;13.95;;;12.68;;
4363;SDS011;15337;48.202;12.770;2022-08-06T15:10:40;14.35;;;12.85;;
4363;SDS011;15337;48.202;12.770;2022-08-06T15:13:07;12.57;;;11.77;;
4363;SDS011;15337;48.202;12.770;2022-08-06T15:15:34;11.48;;;10.70;;
4363;SDS011;15337;48.202;12.770;2022-08-06T15:18:01;12.13;;;11.35;;
4363;SDS011;15337;48.202;12.770;2022-08-06T15:20:28;11.07;;;10.40;;
4363;SDS011;15337;48.202;12.770;2022-08-06T15:22:55;11.35;;;10.65;;